ADDS METAR Data INFO
IDs: Format: Raw Decoded Include TAF

Data at: 0041 UTC 17 Jan 2017

Region: TOP
KATL 162352Z 14005KT 10SM SCT085 BKN200 19/12 A3023 RMK AO2 SLP235 T01940122 10217 20183 51003

KBOS 162354Z 22011KT 10SM SCT130 BKN210 03/M08 A3026 RMK AO2 SLP247 T00281078 10056 20028 56005 $

KBWI 162354Z 00000KT 10SM OVC025 04/M01 A3035 RMK AO2 RAB27E37 SLP280 P0000 60000 T00441011 10056 20039 58008

KCLE 170037Z 15009KT 7SM OVC008 04/01 A3022 RMK AO2 T00390006 $

KCLT 162352Z 15005KT 10SM OVC013 11/08 A3034 RMK AO2 SLP273 T01110078 10122 20111 53001

KCVG 162352Z 12004KT 4SM -RA BR FEW006 SCT045 OVC070 09/09 A3014 RMK AO2 RAB2259 SLP208 P0002 60002 T00940094 10100 20083 58004

KDCA 162352Z 18006KT 10SM OVC028 06/01 A3036 RMK AO2 SLP280 T00610006 10078 20061 58006

KDEN 162353Z 25005KT 10SM FEW045 BKN060 01/M03 A3009 RMK AO2 SLP202 60000 T00111033 10017 21011 53009

KDFW 162353Z 33006KT 10SM SCT250 BKN300 15/08 A3000 RMK AO2 SLP155 T01500078 10189 20144 53010

KDTW 170019Z 08005KT 3SM -RA BR OVC017 01/M01 A3021 RMK AO2 TWR VIS 4 P0001 T00111006 $

KEWR 162351Z 23008KT 10SM FEW080 BKN130 OVC250 05/M04 A3034 RMK AO2 SLP274 T00501044 10067 20044 58005

KFLL 162353Z 06009KT 10SM -RA FEW027 FEW035 BKN060 23/18 A3021 RMK AO2 RAB50 SLP229 P0000 60000 T02280183 10261 20228 51005

KIAD 162352Z 16004KT 10SM OVC019 06/00 A3034 RMK AO2 SLP276 T00610000 10072 20061 58008

KIAH 170034Z 16006KT 10SM FEW026 SCT075 BKN250 23/18 A2999 RMK AO2 T02330183

KJFK 162351Z 23009KT 10SM SCT150 BKN250 03/M03 A3036 RMK AO2 SLP279 T00331028 10056 20028 56007

KLAS 162356Z 04011KT 10SM FEW200 13/M09 A3006 RMK AO2 SLP178 T01331094 10133 20094 55005

KLAX 162353Z 27014KT 10SM CLR 15/11 A3003 RMK AO2 SLP167 T01500106 10161 20144 55005

KLGA 162351Z 22006KT 10SM FEW120 BKN150 BKN180 BKN250 06/M04 A3034 RMK AO2 SLP272 T00611039 10067 20050 58005 $

KMCO 162353Z 09006KT 10SM CLR 21/13 A3024 RMK AO2 SLP240 T02060133 10272 20206 51006

KMDW 170010Z 07005KT 1/4SM R31C/2800V3500FT -RA FG OVC002 02/01 A3003 RMK AO2 RAB2355 P0000 T00220011

KMEM 162354Z 17011KT 10SM FEW055 SCT080 OVC150 18/17 A3000 RMK AO2 RAE08 SLP157 P0001 60004 T01780167 10200 20178 58008

KMIA 162353Z 10009KT 10SM FEW033 FEW055 24/16 A3021 RMK AO2 SLP231 T02440156 10278 20239 50004

KMSP 162353Z 04006KT 6SM -FZRA OVC036 M01/M05 A3003 RMK AO2 FZRAB31 SLP183 4/002 P0000 60000 I1000 I6000 T10061050 10000 21028 56006

KORD 170024Z 10009KT 1/2SM R10L/P6000FT -DZ BR OVC003 02/02 A3002 RMK AO2 SFC VIS 2 P0000 T00220017

KPDX 162353Z 13016KT 10SM SCT085 SCT140 BKN200 M02/M08 A3014 RMK AO2 SLP208 T10221083 11017 21044 58020

KPHL 162354Z 19004KT 10SM SCT035 OVC085 04/M04 A3037 RMK AO2 SLP284 T00391039 10056 20039 58009

KPHX 162351Z 19004KT 10SM FEW045 FEW065 BKN250 17/05 A2998 RMK AO2 SLP145 T01670050 10178 20128 55001

KPIT 170010Z 18003KT 8SM BKN017 OVC065 03/01 A3023 RMK AO2 T00280011

KSAN 162351Z 32011KT 10SM FEW024 FEW050 SCT220 17/10 A3003 RMK AO2 SLP169 T01670100 10178 20150 53001

KSEA 162353Z 16004KT 10SM BKN075 BKN250 07/01 A3003 RMK AO2 SLP179 T00670011 10067 20022 56015

KSFO 162356Z 04005KT 10SM FEW200 12/06 A3010 RMK AO2 SLP192 T01170056 10122 20078 56014

KSLC 162354Z 28005KT 10SM FEW030 FEW060 M03/M08 A3026 RMK AO2 SLP274 T10281078 11011 21033 52002

KSTL 162351Z 14004KT 3SM BR OVC003 13/12 A2991 RMK AO2 RAE26 SLP163 P0001 60006 T01280117 10128 20089 57003 $

KTPA 162353Z 07003KT 10SM FEW080 24/14 A3022 RMK AO2 SLP233 T02390139 10272 20239 53003


Page loaded:  00:41 UTC  |   04:41 PM Pacific  |   05:41 PM Mountain  |   06:41 PM Central  |   07:41 PM Eastern

 

ADVISORIES

FORECASTS

FORECASTS

OBSERVATIONS

USER TOOLS

ABOUT US